createdAt,value
2018-10-18T00:00:53.692Z,92.30
2018-10-18T00:05:57.332Z,92.40
2018-10-18T00:11:00.898Z,92.30
2018-10-18T00:16:04.668Z,92.40
2018-10-18T00:21:08.170Z,92.70
2018-10-18T00:26:11.760Z,92.70
2018-10-18T00:31:15.168Z,92.60
2018-10-18T00:36:18.669Z,92.90
2018-10-18T00:41:22.298Z,92.70
2018-10-18T00:46:25.752Z,92.90
2018-10-18T00:51:29.366Z,92.70
2018-10-18T00:56:32.829Z,92.70
2018-10-18T01:01:36.360Z,93.10
2018-10-18T01:06:40.395Z,93.40
2018-10-18T01:11:43.894Z,93.30
2018-10-18T01:16:52.064Z,93.20
2018-10-18T01:21:55.632Z,93.30
2018-10-18T01:26:59.214Z,93.20
2018-10-18T01:32:02.919Z,93.10
2018-10-18T01:37:06.548Z,93.40
2018-10-18T01:42:10.361Z,93.20
2018-10-18T01:47:13.888Z,93.40
2018-10-18T01:52:17.534Z,93.70
2018-10-18T01:57:21.120Z,93.80
2018-10-18T02:02:24.681Z,93.60
2018-10-18T02:07:28.253Z,93.80
2018-10-18T02:13:35.063Z,93.20
2018-10-18T02:18:38.549Z,93.00
2018-10-18T02:23:42.126Z,93.20
2018-10-18T02:28:45.871Z,93.10
2018-10-18T02:33:49.495Z,93.20
2018-10-18T02:38:52.943Z,92.80
2018-10-18T02:43:56.444Z,92.70
2018-10-18T02:49:00.111Z,92.90
2018-10-18T02:54:03.633Z,93.00
2018-10-18T02:59:07.196Z,93.10
2018-10-18T03:04:10.709Z,93.30
2018-10-18T03:09:14.226Z,94.00
2018-10-18T03:14:17.739Z,94.40
2018-10-18T03:19:21.285Z,94.00
2018-10-18T03:24:24.842Z,93.90
2018-10-18T03:29:28.404Z,93.70
2018-10-18T03:34:31.882Z,93.50
2018-10-18T03:39:35.409Z,93.20
2018-10-18T03:44:38.826Z,93.40
2018-10-18T03:49:42.301Z,93.30
2018-10-18T03:54:45.955Z,93.70
2018-10-18T03:59:49.532Z,93.50
2018-10-18T04:04:53.016Z,93.50
2018-10-18T04:09:56.093Z,93.40
2018-10-18T04:14:58.947Z,93.30
2018-10-18T04:20:01.868Z,93.20
2018-10-18T04:25:05.818Z,93.10
2018-10-18T04:30:08.927Z,93.00
2018-10-18T04:35:11.775Z,92.80
2018-10-18T04:40:14.710Z,93.00
2018-10-18T04:45:17.630Z,92.90
2018-10-18T04:50:20.484Z,93.20
2018-10-18T04:55:23.387Z,93.00
2018-10-18T05:00:26.346Z,93.00
2018-10-18T05:05:40.502Z,93.10
2018-10-18T05:10:43.388Z,93.30
2018-10-18T05:15:46.587Z,93.30
2018-10-18T05:22:28.767Z,93.30
2018-10-18T05:27:31.711Z,94.30
2018-10-18T05:32:34.855Z,93.80
2018-10-18T05:37:37.773Z,93.70
2018-10-18T05:42:40.617Z,93.90
2018-10-18T05:47:43.515Z,94.20
2018-10-18T05:52:47.104Z,94.30
2018-10-18T05:57:50.010Z,94.20
2018-10-18T06:02:52.943Z,94.00
2018-10-18T06:07:55.943Z,93.70
2018-10-18T06:12:58.955Z,93.70
2018-10-18T06:18:01.790Z,93.80
2018-10-18T06:23:05.754Z,93.60
2018-10-18T06:28:08.744Z,93.70
2018-10-18T06:33:11.795Z,93.80
2018-10-18T06:38:14.801Z,93.60
2018-10-18T06:43:17.749Z,93.60
2018-10-18T06:48:20.567Z,94.20
2018-10-18T06:53:23.454Z,94.20
2018-10-18T06:58:26.513Z,93.50
2018-10-18T07:03:29.475Z,93.40
2018-10-18T07:08:32.409Z,93.70
2018-10-18T07:13:35.383Z,93.40
2018-10-18T07:18:38.297Z,93.70
2018-10-18T07:23:41.426Z,93.60
2018-10-18T07:28:44.298Z,93.30
2018-10-18T07:33:47.268Z,93.10
2018-10-18T07:38:51.089Z,93.50
2018-10-18T07:43:54.030Z,93.40
2018-10-18T07:48:56.937Z,93.40
2018-10-18T07:54:00.329Z,93.40
2018-10-18T07:59:03.457Z,93.00
2018-10-18T08:04:06.355Z,92.50
2018-10-18T08:09:11.884Z,92.40
2018-10-18T08:14:14.946Z,92.30
2018-10-18T08:19:17.967Z,91.80
2018-10-18T08:24:20.727Z,91.30
2018-10-18T08:29:23.870Z,91.50
2018-10-18T08:34:26.765Z,91.10
2018-10-18T08:39:29.769Z,91.30
2018-10-18T08:44:32.933Z,91.50
2018-10-18T08:49:35.912Z,91.30
2018-10-18T08:54:38.830Z,91.20
2018-10-18T08:59:41.829Z,90.90
2018-10-18T09:04:44.896Z,90.60
2018-10-18T09:09:47.800Z,90.30
2018-10-18T09:14:51.019Z,89.20
2018-10-18T09:19:54.005Z,88.90
2018-10-18T09:24:57.127Z,87.40
2018-10-18T09:30:00.006Z,87.40
2018-10-18T09:35:02.985Z,87.60
2018-10-18T09:40:07.458Z,88.60
2018-10-18T09:45:11.752Z,88.60
2018-10-18T09:50:14.961Z,87.90
2018-10-18T09:55:18.044Z,87.30
2018-10-18T10:00:26.572Z,88.10
2018-10-18T10:05:29.697Z,87.90
2018-10-18T10:10:32.685Z,88.00
2018-10-18T10:15:35.691Z,89.20
2018-10-18T10:20:39.223Z,89.20
2018-10-18T10:25:42.391Z,90.20
2018-10-18T10:35:40.791Z,90.50
2018-10-18T10:40:44.324Z,91.30
2018-10-18T10:45:48.016Z,91.70
2018-10-18T10:50:51.481Z,92.20
2018-10-18T10:55:55.153Z,92.70
2018-10-18T11:01:12.841Z,92.40
2018-10-18T11:06:15.997Z,92.70
2018-10-18T11:11:20.164Z,92.50
2018-10-18T11:16:23.887Z,92.00
2018-10-18T11:21:27.626Z,93.00
2018-10-18T11:26:31.348Z,93.30
2018-10-18T11:31:34.854Z,92.70
2018-10-18T11:36:38.539Z,93.40
2018-10-18T11:41:42.569Z,93.30
2018-10-18T11:46:46.123Z,93.00
2018-10-18T11:51:55.210Z,92.60
2018-10-18T11:56:58.680Z,92.70
2018-10-18T12:02:02.349Z,92.20
2018-10-18T12:07:06.544Z,92.50
2018-10-18T12:12:10.351Z,92.40
2018-10-18T12:17:14.099Z,92.00
2018-10-18T12:22:17.630Z,90.70
2018-10-18T12:27:21.195Z,91.40
2018-10-18T12:32:25.200Z,91.40
2018-10-18T12:37:28.919Z,90.60
2018-10-18T12:42:33.424Z,90.70
2018-10-18T12:47:36.419Z,90.70
2018-10-18T12:52:40.138Z,90.50
2018-10-18T12:57:43.796Z,88.90
2018-10-18T13:02:50.857Z,89.50
2018-10-18T13:07:53.984Z,87.40
2018-10-18T13:12:57.050Z,87.80
2018-10-18T13:18:00.050Z,85.20
2018-10-18T13:23:03.623Z,84.80
2018-10-18T13:28:07.518Z,82.20
2018-10-18T13:33:11.180Z,82.10
2018-10-18T13:38:15.098Z,83.40
2018-10-18T13:43:22.053Z,82.80
2018-10-18T13:48:25.578Z,79.00
2018-10-18T13:53:39.444Z,78.50
2018-10-18T13:58:43.262Z,76.30
2018-10-18T14:03:46.754Z,74.70
2018-10-18T14:08:50.254Z,71.80
2018-10-18T14:13:54.242Z,72.50
2018-10-18T14:18:57.820Z,73.20
2018-10-18T14:24:01.921Z,71.40
2018-10-18T14:29:05.517Z,71.20
2018-10-18T14:34:09.420Z,71.10
2018-10-18T14:39:12.951Z,69.00
2018-10-18T14:44:16.718Z,69.00
2018-10-18T14:49:20.108Z,68.70
2018-10-18T14:54:23.761Z,67.40
2018-10-18T14:59:27.570Z,66.70
2018-10-18T15:04:31.282Z,64.70
2018-10-18T15:09:35.234Z,64.60
2018-10-18T15:14:38.774Z,65.20
2018-10-18T15:19:42.356Z,63.20
2018-10-18T15:24:45.934Z,63.00
2018-10-18T15:29:49.732Z,63.00
2018-10-18T15:34:53.290Z,62.50
2018-10-18T15:39:56.948Z,62.20
2018-10-18T15:45:00.893Z,62.30
2018-10-18T15:50:06.232Z,61.70
2018-10-18T15:55:09.820Z,63.20
2018-10-18T16:00:13.525Z,63.40
2018-10-18T16:05:17.446Z,63.90
2018-10-18T16:10:20.991Z,63.80
2018-10-18T16:15:24.807Z,64.90
2018-10-18T16:20:28.341Z,66.00
2018-10-18T16:25:32.096Z,66.50
2018-10-18T16:30:35.701Z,67.10
2018-10-18T16:35:39.299Z,68.00
2018-10-18T16:40:42.889Z,68.10
2018-10-18T16:45:46.508Z,68.40
2018-10-18T16:50:50.145Z,68.20
2018-10-18T16:55:53.890Z,68.70
2018-10-18T17:00:57.492Z,69.70
2018-10-18T17:06:01.479Z,70.50
2018-10-18T17:11:05.340Z,70.80
2018-10-18T17:16:09.160Z,71.40
2018-10-18T17:21:12.963Z,72.00
2018-10-18T17:26:16.696Z,73.20
2018-10-18T17:31:20.337Z,74.40
2018-10-18T17:36:24.013Z,73.20
2018-10-18T17:41:27.619Z,72.80
2018-10-18T17:46:31.398Z,73.20
2018-10-18T17:51:35.355Z,73.80
2018-10-18T17:56:38.924Z,74.30
2018-10-18T18:01:42.754Z,75.70
2018-10-18T18:06:46.509Z,76.00
2018-10-18T18:11:50.260Z,76.70
2018-10-18T18:16:54.261Z,76.40
2018-10-18T18:21:58.295Z,76.70
2018-10-18T18:27:02.220Z,77.20
2018-10-18T18:32:05.956Z,76.60
2018-10-18T18:37:09.484Z,76.50
2018-10-18T18:42:13.045Z,77.70
2018-10-18T18:47:16.642Z,77.90
2018-10-18T18:52:20.111Z,77.80
2018-10-18T18:57:23.612Z,78.30
2018-10-18T19:02:27.155Z,78.90
2018-10-18T19:07:31.086Z,78.80
2018-10-18T19:12:34.553Z,78.60
2018-10-18T19:17:39.241Z,77.60
2018-10-18T19:22:43.275Z,77.10
2018-10-18T19:27:46.986Z,75.00
2018-10-18T19:32:50.649Z,74.30
2018-10-18T19:37:54.251Z,73.40
2018-10-18T19:42:57.890Z,73.90
2018-10-18T19:48:01.484Z,73.40
2018-10-18T19:53:05.853Z,72.60
2018-10-18T19:58:09.494Z,72.80
2018-10-18T20:03:12.993Z,72.50
2018-10-18T20:08:16.859Z,72.20
2018-10-18T20:13:20.427Z,72.00
2018-10-18T20:18:24.054Z,71.80
2018-10-18T20:23:27.574Z,71.50
2018-10-18T20:28:31.059Z,72.00
2018-10-18T20:33:34.628Z,72.70
2018-10-18T20:38:38.113Z,73.40
2018-10-18T20:43:41.593Z,73.40
2018-10-18T20:48:45.122Z,74.80
2018-10-18T20:53:48.660Z,75.50
2018-10-18T20:58:52.324Z,75.40
2018-10-18T21:03:55.881Z,76.70
2018-10-18T21:08:59.398Z,77.10
2018-10-18T21:14:07.479Z,78.60
2018-10-18T21:19:11.060Z,78.80
2018-10-18T21:24:14.698Z,79.50
2018-10-18T21:29:18.714Z,80.20
2018-10-18T21:34:22.410Z,81.00
2018-10-18T21:39:31.361Z,81.90
2018-10-18T21:44:37.225Z,82.30
2018-10-18T21:49:40.853Z,82.40
2018-10-18T21:54:44.517Z,82.40
2018-10-18T21:59:48.076Z,82.50
2018-10-18T22:04:51.909Z,82.40
2018-10-18T22:09:55.682Z,82.20
2018-10-18T22:14:59.180Z,82.60
2018-10-18T22:20:02.967Z,82.50
2018-10-18T22:25:08.171Z,82.70
2018-10-18T22:30:11.958Z,83.30
2018-10-18T22:35:15.814Z,83.40
2018-10-18T22:40:20.469Z,83.80
2018-10-18T22:45:24.020Z,84.00
2018-10-18T22:50:27.816Z,84.20
2018-10-18T22:55:31.404Z,85.10
2018-10-18T23:00:34.852Z,85.30
2018-10-18T23:05:38.330Z,85.00
2018-10-18T23:10:41.865Z,85.00
2018-10-18T23:15:45.357Z,84.90
2018-10-18T23:20:48.920Z,85.00
2018-10-18T23:25:52.551Z,84.60
2018-10-18T23:30:56.290Z,84.80
2018-10-18T23:35:59.728Z,85.00
2018-10-18T23:41:03.436Z,85.10
2018-10-18T23:46:06.882Z,85.30
2018-10-18T23:51:10.501Z,85.10
2018-10-18T23:56:14.054Z,84.90
